Time;durP1;ratioP1;P1;durP2;ratioP2;P2;SDS_P1;SDS_P2;PMS_P1;PMS_P2;Temp;Humidity;BMP_temperature;BMP_pressure;BME280_temperature;BME280_humidity;BME280_pressure;Samples;Min_cycle;Max_cycle;Signal;HPM_P1;HPM_P2
2020/12/21 00:01:59;;;;;;;25.50;14.13;;;5.00;99.90;;;;;;4979015;28;20034;-72
2020/12/21 00:04:25;;;;;;;26.13;14.82;;;5.00;99.90;;;;;;4970513;28;20398;-72
2020/12/21 00:06:57;;;;;;;25.40;13.23;;;5.00;99.90;;;;;;4978863;28;20045;-73
2020/12/21 00:09:24;;;;;;;26.85;14.13;;;5.00;99.90;;;;;;4977011;28;20049;-73
2020/12/21 00:11:50;;;;;;;27.15;14.18;;;5.00;99.90;;;;;;4961293;28;20042;-73
2020/12/21 00:14:17;;;;;;;24.33;13.75;;;5.00;99.90;;;;;;4978335;28;20027;-73
2020/12/21 00:16:45;;;;;;;28.63;14.48;;;5.00;99.90;;;;;;4978094;28;20040;-73
2020/12/21 00:19:12;;;;;;;27.80;14.55;;;5.00;99.90;;;;;;4979559;28;20177;-73
2020/12/21 00:21:39;;;;;;;26.73;13.95;;;5.00;99.90;;;;;;4978238;28;20912;-73
2020/12/21 00:24:05;;;;;;;30.55;15.02;;;4.90;99.90;;;;;;4972564;28;20061;-73
2020/12/21 00:26:31;;;;;;;29.23;14.88;;;4.90;99.90;;;;;;4979102;28;20033;-71
2020/12/21 00:28:57;;;;;;;28.17;15.18;;;4.90;99.90;;;;;;4960781;28;20409;-73
2020/12/21 00:31:28;;;;;;;28.75;15.05;;;4.90;99.90;;;;;;4971857;28;21023;-73
2020/12/21 00:33:54;;;;;;;30.05;15.00;;;4.80;99.90;;;;;;4978325;28;20034;-73
2020/12/21 00:36:21;;;;;;;27.48;14.65;;;4.90;99.90;;;;;;4975784;28;20049;-73
2020/12/21 00:38:47;;;;;;;29.65;14.55;;;4.80;99.90;;;;;;4976976;28;20038;-71
2020/12/21 00:41:15;;;;;;;26.23;13.95;;;4.80;99.90;;;;;;4971463;28;20038;-74
2020/12/21 00:43:47;;;;;;;30.10;14.27;;;4.90;99.90;;;;;;4969964;28;20076;-71
2020/12/21 00:46:19;;;;;;;32.10;16.13;;;4.90;99.90;;;;;;4970135;28;20050;-72
2020/12/21 00:48:44;;;;;;;25.08;13.77;;;4.90;99.90;;;;;;4977309;28;20130;-71
2020/12/21 00:51:11;;;;;;;28.25;14.43;;;4.90;99.90;;;;;;4979131;28;20026;-71
2020/12/21 00:53:37;;;;;;;32.58;15.80;;;4.90;99.90;;;;;;4978362;28;20041;-71
2020/12/21 00:56:04;;;;;;;31.02;15.77;;;5.10;99.90;;;;;;4971094;28;20054;-71
2020/12/21 00:58:32;;;;;;;32.28;15.90;;;5.10;99.90;;;;;;4968919;28;20707;-72
2020/12/21 01:00:59;;;;;;;32.25;15.88;;;5.10;99.90;;;;;;4972995;28;20816;-71
2020/12/21 01:03:24;;;;;;;30.92;16.20;;;5.20;99.90;;;;;;4973810;28;20034;-71
2020/12/21 01:05:50;;;;;;;29.17;15.70;;;5.20;99.90;;;;;;4973091;28;20030;-71
2020/12/21 01:08:16;;;;;;;30.50;15.68;;;5.20;99.90;;;;;;4973824;28;20421;-71
2020/12/21 01:10:42;;;;;;;33.20;15.90;;;5.30;99.90;;;;;;4978496;28;20137;-71
2020/12/21 01:13:07;;;;;;;30.88;15.85;;;5.30;99.90;;;;;;4977526;28;20030;-73
2020/12/21 01:15:33;;;;;;;30.92;15.77;;;5.20;99.90;;;;;;4976524;28;20505;-71
2020/12/21 01:17:59;;;;;;;30.05;15.65;;;5.20;99.90;;;;;;4953817;28;20039;-72
2020/12/21 01:20:24;;;;;;;32.70;15.35;;;5.20;99.90;;;;;;4973972;28;20045;-71
2020/12/21 01:22:50;;;;;;;29.75;14.88;;;5.20;99.90;;;;;;4977584;28;20038;-72
2020/12/21 01:25:16;;;;;;;26.17;14.93;;;5.20;99.90;;;;;;4956963;28;20818;-72
2020/12/21 01:27:41;;;;;;;32.53;17.52;;;5.20;99.90;;;;;;4978020;28;20054;-71
2020/12/21 01:30:07;;;;;;;32.15;16.73;;;5.20;99.90;;;;;;4977220;28;20048;-72
2020/12/21 01:32:33;;;;;;;31.38;17.35;;;5.20;99.90;;;;;;4968088;28;20058;-72
2020/12/21 01:34:58;;;;;;;33.25;17.35;;;5.20;99.90;;;;;;4976450;28;20038;-71
2020/12/21 01:37:24;;;;;;;31.88;17.02;;;5.20;99.90;;;;;;4960514;28;20106;-72
2020/12/21 01:39:50;;;;;;;35.85;18.17;;;5.20;99.90;;;;;;4976543;28;20026;-71
2020/12/21 01:42:17;;;;;;;36.33;18.58;;;5.30;99.90;;;;;;4969281;28;20022;-71
2020/12/21 01:44:49;;;;;;;39.40;19.38;;;5.30;99.90;;;;;;4976503;28;20034;-71
2020/12/21 01:47:16;;;;;;;37.05;19.50;;;5.40;99.90;;;;;;4973432;28;20041;-71
2020/12/21 01:49:42;;;;;;;37.55;18.98;;;5.50;99.90;;;;;;4960798;28;20047;-72
2020/12/21 01:52:09;;;;;;;42.65;20.30;;;5.50;99.90;;;;;;4960451;28;20038;-71
2020/12/21 01:54:34;;;;;;;37.35;18.40;;;5.40;99.90;;;;;;4974591;28;20074;-71
2020/12/21 01:57:00;;;;;;;37.47;19.88;;;5.50;99.90;;;;;;4975518;28;20030;-71
2020/12/21 01:59:26;;;;;;;41.38;20.02;;;5.50;99.90;;;;;;4974167;28;20852;-71
2020/12/21 02:01:53;;;;;;;42.92;21.23;;;5.50;99.90;;;;;;4954280;28;20041;-72
2020/12/21 02:04:19;;;;;;;37.15;18.98;;;5.50;99.90;;;;;;4959663;28;20719;-72
2020/12/21 02:06:46;;;;;;;41.03;20.45;;;5.50;99.90;;;;;;4975625;28;20618;-71
2020/12/21 02:09:12;;;;;;;42.13;20.92;;;5.50;99.90;;;;;;4957380;28;20049;-71
2020/12/21 02:11:42;;;;;;;39.10;20.88;;;5.50;99.90;;;;;;4974401;28;20035;-71
2020/12/21 02:14:08;;;;;;;38.47;20.77;;;5.60;99.90;;;;;;4972235;28;20030;-72
2020/12/21 02:16:35;;;;;;;42.75;20.23;;;5.60;99.90;;;;;;4960474;28;20789;-72
2020/12/21 02:19:01;;;;;;;38.60;20.15;;;5.60;99.90;;;;;;4957661;28;20096;-71
2020/12/21 02:21:27;;;;;;;37.78;19.42;;;5.60;99.90;;;;;;4956095;28;20820;-71
2020/12/21 02:23:52;;;;;;;37.47;20.48;;;5.60;99.90;;;;;;4959026;28;20137;-71
2020/12/21 02:26:18;;;;;;;43.30;21.08;;;5.50;99.90;;;;;;4968916;28;20031;-71
2020/12/21 02:28:44;;;;;;;39.65;20.92;;;5.50;99.90;;;;;;4967716;28;20575;-71
2020/12/21 02:31:09;;;;;;;42.63;21.23;;;5.50;99.90;;;;;;4974167;28;20557;-71
2020/12/21 02:33:35;;;;;;;42.67;21.40;;;5.60;99.90;;;;;;4971036;28;20038;-71
2020/12/21 02:36:01;;;;;;;36.65;20.10;;;5.50;99.90;;;;;;4955006;28;20045;-71
2020/12/21 02:38:27;;;;;;;39.97;19.67;;;5.50;99.90;;;;;;4968815;28;20077;-71
2020/12/21 02:40:52;;;;;;;40.00;20.00;;;5.50;99.90;;;;;;4971051;28;20038;-71
2020/12/21 02:43:20;;;;;;;39.45;20.08;;;5.50;99.90;;;;;;4968693;28;20037;-71
2020/12/21 02:45:45;;;;;;;31.98;17.73;;;5.50;99.90;;;;;;4978070;28;20031;-72
2020/12/21 02:48:11;;;;;;;37.90;19.52;;;5.50;99.90;;;;;;4974595;28;20042;-71
2020/12/21 02:50:37;;;;;;;38.95;19.27;;;5.50;99.90;;;;;;4974869;28;20043;-70
2020/12/21 02:53:03;;;;;;;35.65;18.05;;;5.50;99.90;;;;;;4951838;28;20073;-71
2020/12/21 02:55:29;;;;;;;36.38;18.83;;;5.50;99.90;;;;;;4949263;28;20039;-71
2020/12/21 02:57:54;;;;;;;37.53;18.70;;;5.60;99.90;;;;;;4975549;28;20478;-71
2020/12/21 03:00:20;;;;;;;32.88;17.83;;;5.60;99.90;;;;;;4974066;28;20065;-71
2020/12/21 03:02:45;;;;;;;32.45;18.17;;;5.60;99.90;;;;;;4975399;28;20031;-71
2020/12/21 03:05:11;;;;;;;32.58;16.38;;;5.60;99.90;;;;;;4973601;28;20089;-71
2020/12/21 03:07:37;;;;;;;31.38;17.35;;;5.60;99.90;;;;;;4968134;28;20060;-71
2020/12/21 03:10:03;;;;;;;36.25;18.05;;;5.60;99.90;;;;;;4977348;28;20652;-71
2020/12/21 03:12:29;;;;;;;33.60;17.48;;;5.60;99.90;;;;;;4961917;28;20850;-71
2020/12/21 03:14:55;;;;;;;33.85;16.60;;;5.60;99.90;;;;;;4972415;28;20030;-71
2020/12/21 03:17:20;;;;;;;32.25;17.13;;;5.60;99.90;;;;;;4956057;28;20038;-71
2020/12/21 03:19:46;;;;;;;30.75;17.20;;;5.60;99.90;;;;;;4959119;28;20026;-71
2020/12/21 03:22:12;;;;;;;34.15;17.88;;;5.60;99.90;;;;;;4977387;28;20049;-72
2020/12/21 03:24:38;;;;;;;30.25;15.98;;;5.60;99.90;;;;;;4974917;28;20034;-73
2020/12/21 03:27:04;;;;;;;31.13;17.02;;;5.60;99.90;;;;;;4969007;28;20038;-72
2020/12/21 03:29:30;;;;;;;30.10;16.35;;;5.60;99.90;;;;;;4966692;28;20048;-71
2020/12/21 03:31:55;;;;;;;30.85;16.65;;;5.60;99.90;;;;;;4964194;28;20030;-71
2020/12/21 03:34:21;;;;;;;29.48;16.58;;;5.60;99.90;;;;;;4974241;28;20044;-71
2020/12/21 03:36:47;;;;;;;30.83;15.85;;;5.70;99.90;;;;;;4971320;28;20049;-71
2020/12/21 03:39:12;;;;;;;29.52;15.98;;;5.70;99.90;;;;;;4967873;28;20053;-71
2020/12/21 03:41:38;;;;;;;28.58;16.35;;;5.70;99.90;;;;;;4974809;28;20034;-71
2020/12/21 03:44:04;;;;;;;29.77;15.82;;;5.60;99.90;;;;;;4970227;28;20497;-72
2020/12/21 03:46:29;;;;;;;28.00;16.70;;;5.60;99.90;;;;;;4974841;28;20210;-72
2020/12/21 03:48:55;;;;;;;29.77;16.15;;;5.60;99.90;;;;;;4970921;28;20512;-71
2020/12/21 03:51:21;;;;;;;26.58;14.98;;;5.70;99.90;;;;;;4966034;28;20030;-71
2020/12/21 03:53:47;;;;;;;32.33;15.77;;;5.60;99.90;;;;;;4975025;28;20042;-72
2020/12/21 03:56:13;;;;;;;27.85;15.25;;;5.60;99.90;;;;;;4974075;28;20069;-71
2020/12/21 03:58:38;;;;;;;29.95;16.77;;;5.50;99.90;;;;;;4972331;28;20063;-71
2020/12/21 04:01:04;;;;;;;27.50;15.95;;;5.60;99.90;;;;;;4972903;28;20026;-71
2020/12/21 04:03:30;;;;;;;29.63;16.83;;;5.60;99.90;;;;;;4977558;28;20874;-71
2020/12/21 04:05:56;;;;;;;29.50;16.30;;;5.60;99.90;;;;;;4967720;28;20027;-71
2020/12/21 04:08:22;;;;;;;28.05;15.73;;;5.60;99.90;;;;;;4976152;28;20045;-71
2020/12/21 04:10:48;;;;;;;33.40;16.50;;;5.70;99.90;;;;;;4960601;28;20088;-71
2020/12/21 04:13:14;;;;;;;29.08;16.08;;;5.70;99.90;;;;;;4977999;28;20575;-71
2020/12/21 04:15:40;;;;;;;33.08;17.00;;;5.60;99.90;;;;;;4978626;28;20042;-71
2020/12/21 04:18:06;;;;;;;28.65;17.10;;;5.60;99.90;;;;;;4978223;28;20046;-72
2020/12/21 04:20:32;;;;;;;31.35;16.35;;;5.50;99.90;;;;;;4961006;28;20579;-71
2020/12/21 04:22:59;;;;;;;32.85;16.17;;;5.50;99.90;;;;;;4978157;28;20031;-71
2020/12/21 04:25:25;;;;;;;33.90;17.92;;;5.50;99.90;;;;;;4975965;28;20031;-71
2020/12/21 04:27:51;;;;;;;28.40;15.77;;;5.50;99.90;;;;;;4972694;28;20126;-71
2020/12/21 04:30:17;;;;;;;33.13;16.33;;;5.50;99.90;;;;;;4970182;28;20034;-72
2020/12/21 04:32:42;;;;;;;31.23;16.42;;;5.50;99.90;;;;;;4975353;28;20030;-71
2020/12/21 04:35:08;;;;;;;30.23;16.88;;;5.50;99.90;;;;;;4974768;28;20125;-71
2020/12/21 04:37:34;;;;;;;28.10;15.85;;;5.50;99.90;;;;;;4977805;28;20148;-71
2020/12/21 04:40:00;;;;;;;27.40;15.57;;;5.50;99.90;;;;;;4978095;28;20030;-71
2020/12/21 04:42:26;;;;;;;32.15;16.77;;;5.50;99.90;;;;;;4975941;28;20030;-71
2020/12/21 04:44:52;;;;;;;27.65;15.13;;;5.50;99.90;;;;;;4961822;28;20772;-71
2020/12/21 04:47:18;;;;;;;28.50;16.33;;;5.50;99.90;;;;;;4974705;28;20038;-71
2020/12/21 04:49:45;;;;;;;34.47;16.58;;;5.50;99.90;;;;;;4980287;28;20048;-71
2020/12/21 04:52:13;;;;;;;29.50;15.65;;;5.50;99.90;;;;;;4977166;28;20429;-71
2020/12/21 04:54:40;;;;;;;28.30;16.30;;;5.50;99.90;;;;;;4970569;28;20046;-71
2020/12/21 04:57:06;;;;;;;30.20;15.07;;;5.40;99.90;;;;;;4970843;28;20042;-71
2020/12/21 04:59:32;;;;;;;31.65;16.27;;;5.40;99.90;;;;;;4963434;28;20039;-72
2020/12/21 05:02:02;;;;;;;28.13;15.75;;;5.40;99.90;;;;;;4960082;28;20045;-71
2020/12/21 05:04:28;;;;;;;30.90;16.90;;;5.40;99.90;;;;;;4977703;28;20046;-72
2020/12/21 05:06:56;;;;;;;32.65;16.45;;;5.40;99.90;;;;;;4978221;28;20036;-70
2020/12/21 05:09:26;;;;;;;30.38;16.20;;;5.40;99.90;;;;;;4977851;28;20877;-71
2020/12/21 05:11:57;;;;;;;27.20;15.63;;;5.30;99.90;;;;;;4959262;28;20530;-70
2020/12/21 05:14:49;;;;;;;46.08;23.35;;;5.30;99.90;;;;;;4975527;28;20038;-70
2020/12/21 05:17:16;;;;;;;29.08;15.90;;;5.30;99.90;;;;;;4962002;28;20046;-70
2020/12/21 05:19:43;;;;;;;34.00;16.50;;;5.20;99.90;;;;;;4976821;28;20065;-69
2020/12/21 05:22:13;;;;;;;47.38;22.85;;;5.20;99.90;;;;;;4976303;28;20481;-69
2020/12/21 05:24:39;;;;;;;29.30;15.60;;;5.10;99.90;;;;;;4964252;28;20030;-69
2020/12/21 05:27:11;;;;;;;34.80;16.45;;;5.10;99.90;;;;;;4976871;28;20042;-72
2020/12/21 05:29:37;;;;;;;48.15;23.90;;;5.00;99.90;;;;;;4972027;28;20049;-71
2020/12/21 05:32:03;;;;;;;71.15;31.40;;;5.00;99.90;;;;;;4971228;28;20039;-70
2020/12/21 05:34:29;;;;;;;32.72;17.25;;;5.00;99.90;;;;;;4976656;28;20077;-70
2020/12/21 05:36:54;;;;;;;33.92;15.07;;;5.00;99.90;;;;;;4958699;28;20799;-69
2020/12/21 05:39:20;;;;;;;27.45;15.45;;;4.90;99.90;;;;;;4976494;28;20438;-68
2020/12/21 05:41:46;;;;;;;29.52;15.18;;;4.90;99.90;;;;;;4958919;28;20113;-69
2020/12/21 05:44:12;;;;;;;35.33;16.30;;;4.90;99.90;;;;;;4965977;28;20038;-69
2020/12/21 05:46:38;;;;;;;32.95;17.45;;;4.90;99.90;;;;;;4974899;28;20133;-69
2020/12/21 05:49:04;;;;;;;30.05;15.18;;;4.80;99.90;;;;;;4976467;28;20042;-69
2020/12/21 05:51:33;;;;;;;32.55;16.30;;;4.80;99.90;;;;;;4967923;28;20156;-69
2020/12/21 05:54:01;;;;;;;30.23;15.02;;;4.70;99.90;;;;;;4976476;28;20026;-69
2020/12/21 05:56:32;;;;;;;29.02;14.38;;;4.70;99.90;;;;;;4966923;28;20086;-69
2020/12/21 05:58:58;;;;;;;34.05;15.82;;;4.70;99.90;;;;;;4971533;28;20038;-69
2020/12/21 06:01:25;;;;;;;30.27;15.60;;;4.70;99.90;;;;;;4969474;28;20030;-68
2020/12/21 06:04:01;;;;;;;30.17;15.75;;;4.70;99.90;;;;;;4977747;28;20034;-68
2020/12/21 06:06:29;;;;;;;32.58;16.42;;;4.60;99.90;;;;;;4972852;28;20109;-68
2020/12/21 06:08:57;;;;;;;28.10;14.35;;;4.60;99.90;;;;;;4956662;28;20109;-69
2020/12/21 06:11:27;;;;;;;31.88;15.35;;;4.50;99.90;;;;;;4976782;28;20070;-69
2020/12/21 06:14:06;;;;;;;30.38;15.32;;;4.40;99.90;;;;;;4975533;28;20650;-69
2020/12/21 06:16:35;;;;;;;30.67;15.15;;;4.40;99.90;;;;;;4974808;28;20027;-70
2020/12/21 06:19:06;;;;;;;31.83;15.63;;;4.40;99.90;;;;;;4958682;28;20477;-70
2020/12/21 06:21:53;;;;;;;31.17;15.25;;;4.30;99.90;;;;;;4961619;28;20042;-70
2020/12/21 06:24:21;;;;;;;34.20;17.08;;;4.30;99.90;;;;;;4974282;28;20578;-71
2020/12/21 06:26:48;;;;;;;37.80;15.82;;;4.40;99.90;;;;;;4977971;28;20034;-71
2020/12/21 06:29:19;;;;;;;38.83;16.73;;;4.30;99.90;;;;;;4968236;28;20821;-71
2020/12/21 06:31:45;;;;;;;34.40;16.40;;;4.30;99.90;;;;;;4968758;28;20108;-69
2020/12/21 06:34:17;;;;;;;36.47;17.10;;;4.30;99.90;;;;;;4968927;28;20065;-69
2020/12/21 06:36:47;;;;;;;32.08;14.75;;;4.20;99.90;;;;;;4962327;28;20046;-69
2020/12/21 06:39:23;;;;;;;33.83;16.73;;;4.10;99.90;;;;;;4968320;28;20117;-69
2020/12/21 06:42:04;;;;;;;37.80;18.65;;;4.10;99.90;;;;;;4976474;28;20142;-69
2020/12/21 06:44:31;;;;;;;37.00;16.58;;;4.10;99.90;;;;;;4966502;28;20490;-69
2020/12/21 06:46:58;;;;;;;37.95;16.83;;;4.10;99.90;;;;;;4967036;28;20046;-69
2020/12/21 06:49:24;;;;;;;34.22;15.95;;;4.00;99.90;;;;;;4969663;28;20030;-69
2020/12/21 06:51:50;;;;;;;36.95;17.00;;;4.00;99.90;;;;;;4971319;28;20049;-69
2020/12/21 06:54:17;;;;;;;39.90;17.38;;;4.10;99.90;;;;;;4978949;28;20042;-74
2020/12/21 06:56:45;;;;;;;39.22;17.48;;;4.10;99.90;;;;;;4968954;28;20038;-71
2020/12/21 06:59:19;;;;;;;39.08;18.50;;;4.20;99.90;;;;;;4969045;28;20034;-70
2020/12/21 07:01:47;;;;;;;36.97;16.55;;;4.20;99.90;;;;;;4966485;28;20077;-69
2020/12/21 07:04:16;;;;;;;36.35;17.25;;;4.20;99.90;;;;;;4967249;28;20038;-69
2020/12/21 07:06:42;;;;;;;39.97;17.20;;;4.30;99.90;;;;;;4975146;28;20116;-69
2020/12/21 07:09:09;;;;;;;34.78;16.00;;;4.40;99.90;;;;;;4974141;28;20591;-69
2020/12/21 07:11:37;;;;;;;39.00;16.85;;;4.40;99.90;;;;;;4959586;28;20041;-69
2020/12/21 07:14:03;;;;;;;34.47;14.93;;;4.40;99.90;;;;;;4951771;28;20635;-70
2020/12/21 07:16:29;;;;;;;29.98;14.73;;;4.40;99.90;;;;;;4974204;28;20062;-70
2020/12/21 07:18:55;;;;;;;33.45;15.10;;;4.40;99.90;;;;;;4974856;28;20141;-71
2020/12/21 07:21:20;;;;;;;34.78;15.23;;;4.40;99.90;;;;;;4973673;28;20026;-70
2020/12/21 07:23:46;;;;;;;29.08;14.85;;;4.40;99.90;;;;;;4970697;28;20034;-70
2020/12/21 07:26:14;;;;;;;30.65;14.48;;;4.30;99.90;;;;;;4968525;28;20027;-71
2020/12/21 07:28:44;;;;;;;30.23;14.07;;;4.30;99.90;;;;;;4975374;28;20495;-71
2020/12/21 07:31:13;;;;;;;29.30;14.90;;;4.30;99.90;;;;;;4958131;28;20038;-71
2020/12/21 07:33:54;;;;;;;29.55;13.82;;;4.30;99.90;;;;;;4976348;28;20057;-70
2020/12/21 07:36:22;;;;;;;32.75;14.63;;;4.20;99.90;;;;;;4963611;28;20752;-71
2020/12/21 07:38:48;;;;;;;32.10;14.77;;;4.20;99.90;;;;;;4971686;28;20475;-71
2020/12/21 07:41:14;;;;;;;34.50;14.93;;;4.20;99.90;;;;;;4976005;28;20101;-70
2020/12/21 07:44:00;;;;;;;29.92;15.05;;;4.20;99.90;;;;;;4978565;28;20165;-71
2020/12/21 07:46:34;;;;;;;28.55;14.88;;;4.20;99.90;;;;;;4964520;28;20177;-71
2020/12/21 07:49:00;;;;;;;31.95;16.90;;;4.20;99.90;;;;;;4983175;28;20046;-71
2020/12/21 07:51:26;;;;;;;32.38;15.07;;;4.30;99.90;;;;;;4981482;28;20054;-70
2020/12/21 07:53:52;;;;;;;30.63;14.52;;;4.20;99.90;;;;;;4975997;28;20075;-70
2020/12/21 07:56:18;;;;;;;28.77;15.00;;;4.10;99.90;;;;;;4980566;28;20129;-70
2020/12/21 07:58:44;;;;;;;30.02;14.35;;;4.10;99.90;;;;;;4982347;28;20038;-70
2020/12/21 08:01:10;;;;;;;30.65;15.13;;;4.10;99.90;;;;;;4981077;28;20045;-70
2020/12/21 08:03:39;;;;;;;26.42;14.10;;;4.20;99.90;;;;;;4978230;28;20465;-70
2020/12/21 08:06:16;;;;;;;35.30;15.27;;;4.20;99.90;;;;;;4981969;28;20397;-70
2020/12/21 08:08:42;;;;;;;32.08;16.10;;;4.20;99.90;;;;;;4981382;28;20495;-70
2020/12/21 08:11:16;;;;;;;35.13;15.90;;;4.20;99.90;;;;;;4974691;28;20077;-71
2020/12/21 08:13:50;;;;;;;33.58;16.00;;;4.30;99.90;;;;;;4979636;28;20887;-72
2020/12/21 08:16:16;;;;;;;31.15;15.25;;;4.30;99.90;;;;;;4981110;28;20038;-70
2020/12/21 08:18:49;;;;;;;34.42;16.98;;;4.30;99.90;;;;;;4979511;28;20044;-71
2020/12/21 08:21:16;;;;;;;32.53;15.20;;;4.40;99.90;;;;;;4979473;28;20034;-71
2020/12/21 08:23:54;;;;;;;30.83;14.88;;;4.50;99.90;;;;;;4981234;28;20042;-71
2020/12/21 08:26:20;;;;;;;31.85;15.63;;;4.60;99.90;;;;;;4977912;28;20034;-70
2020/12/21 08:28:48;;;;;;;29.00;15.18;;;4.60;99.90;;;;;;4979752;28;20041;-70
2020/12/21 08:31:19;;;;;;;29.50;14.77;;;4.60;99.90;;;;;;4981630;28;20141;-70
2020/12/21 08:34:01;;;;;;;31.30;14.52;;;4.60;99.90;;;;;;4989309;28;20054;-71
2020/12/21 08:36:33;;;;;;;28.38;14.00;;;4.70;99.90;;;;;;4962882;28;20042;-71
2020/12/21 08:39:18;;;;;;;31.30;14.45;;;4.70;99.90;;;;;;4978540;28;20757;-71
2020/12/21 08:41:52;;;;;;;30.57;14.83;;;4.70;99.90;;;;;;4975623;28;20038;-71
2020/12/21 08:44:22;;;;;;;29.83;14.48;;;4.80;99.90;;;;;;4953489;28;20279;-72
2020/12/21 08:46:53;;;;;;;30.27;14.27;;;4.90;99.90;;;;;;4973655;28;20041;-71
2020/12/21 08:49:21;;;;;;;24.17;13.43;;;4.90;99.90;;;;;;4978710;28;20045;-72
2020/12/21 08:51:48;;;;;;;26.77;13.07;;;5.00;99.90;;;;;;4979067;28;20065;-71
2020/12/21 08:54:14;;;;;;;26.25;13.00;;;5.00;99.90;;;;;;4979570;28;20045;-71
2020/12/21 08:56:40;;;;;;;25.90;13.02;;;5.10;99.90;;;;;;4985706;28;20038;-71
2020/12/21 08:59:05;;;;;;;26.30;13.57;;;5.10;99.90;;;;;;4978711;28;20069;-71
2020/12/21 09:01:31;;;;;;;28.75;14.05;;;5.10;99.90;;;;;;4980608;28;20544;-71
2020/12/21 09:03:57;;;;;;;27.80;13.18;;;5.10;99.90;;;;;;4980482;28;20041;-72
2020/12/21 09:06:24;;;;;;;24.23;13.63;;;5.20;99.90;;;;;;4980316;28;20033;-71
2020/12/21 09:08:51;;;;;;;25.52;13.20;;;5.30;99.90;;;;;;4973046;28;20066;-71
2020/12/21 09:11:20;;;;;;;25.55;12.32;;;5.40;99.90;;;;;;4979714;28;20034;-71
2020/12/21 09:13:48;;;;;;;24.50;12.40;;;5.40;99.90;;;;;;4974526;28;20117;-71
2020/12/21 09:16:22;;;;;;;23.65;11.98;;;5.40;99.90;;;;;;4979761;28;20035;-75
2020/12/21 09:18:47;;;;;;;23.20;12.48;;;5.40;99.90;;;;;;4957809;28;20445;-72
2020/12/21 09:21:23;;;;;;;23.80;12.35;;;5.50;99.90;;;;;;4980512;28;20075;-71
2020/12/21 09:23:51;;;;;;;26.30;12.48;;;5.60;99.90;;;;;;4964446;28;20037;-68
2020/12/21 09:26:17;;;;;;;22.67;12.25;;;5.50;99.90;;;;;;4980072;28;20073;-70
2020/12/21 09:28:44;;;;;;;25.58;11.85;;;5.60;99.90;;;;;;4977862;28;20050;-71
2020/12/21 09:31:13;;;;;;;43.88;20.48;;;5.60;99.90;;;;;;4970898;28;20106;-68
2020/12/21 09:33:40;;;;;;;24.90;11.98;;;5.70;99.90;;;;;;4979698;28;20030;-70
2020/12/21 09:36:09;;;;;;;22.52;11.75;;;5.60;99.90;;;;;;4968468;28;20039;-70
2020/12/21 09:38:36;;;;;;;23.20;11.23;;;5.70;99.90;;;;;;4979762;28;20050;-71
2020/12/21 09:41:03;;;;;;;23.02;11.93;;;5.90;99.90;;;;;;4980488;28;20200;-70
2020/12/21 09:43:29;;;;;;;23.55;10.13;;;6.00;99.90;;;;;;4977871;28;20050;-69
2020/12/21 09:45:55;;;;;;;31.35;14.60;;;6.00;99.90;;;;;;4979478;28;20038;-70
2020/12/21 09:48:20;;;;;;;20.83;10.02;;;5.90;99.90;;;;;;4978871;28;20052;-70
2020/12/21 09:50:46;;;;;;;20.48;10.40;;;6.00;99.90;;;;;;4977069;28;20088;-70
2020/12/21 09:53:12;;;;;;;16.67;9.80;;;6.10;99.90;;;;;;4978290;28;20146;-69
2020/12/21 09:55:38;;;;;;;19.38;9.90;;;6.10;99.90;;;;;;4976244;28;20133;-71
2020/12/21 09:58:05;;;;;;;18.48;10.27;;;6.20;99.90;;;;;;4993367;28;20152;-70
2020/12/21 10:00:31;;;;;;;23.65;10.07;;;6.40;99.90;;;;;;4971173;28;20022;-71
2020/12/21 10:02:56;;;;;;;21.33;11.18;;;6.50;99.90;;;;;;4979428;28;20807;-70
2020/12/21 10:05:22;;;;;;;18.40;9.65;;;6.60;99.90;;;;;;4972516;28;20467;-69
2020/12/21 10:07:48;;;;;;;20.55;9.90;;;6.60;99.90;;;;;;4986136;28;20471;-69
2020/12/21 10:10:14;;;;;;;20.88;9.68;;;6.60;99.90;;;;;;4971467;28;20038;-70
2020/12/21 10:12:40;;;;;;;28.05;10.35;;;6.70;99.90;;;;;;4975416;28;20062;-69
2020/12/21 10:15:06;;;;;;;18.63;8.95;;;6.60;99.90;;;;;;4973174;28;20165;-69
2020/12/21 10:17:32;;;;;;;19.20;9.00;;;6.70;99.90;;;;;;4971802;28;20152;-68
2020/12/21 10:19:57;;;;;;;17.65;9.00;;;6.70;99.90;;;;;;4978941;28;20394;-70
2020/12/21 10:22:23;;;;;;;18.30;9.82;;;6.70;99.90;;;;;;4977719;28;20030;-69
2020/12/21 10:24:49;;;;;;;16.00;8.25;;;6.80;99.90;;;;;;4976689;28;20435;-71
2020/12/21 10:27:14;;;;;;;22.27;8.82;;;6.90;99.90;;;;;;4974432;28;20038;-70
2020/12/21 10:29:40;;;;;;;17.38;9.05;;;6.90;99.90;;;;;;4976480;28;20126;-70
2020/12/21 10:32:06;;;;;;;17.83;8.70;;;6.90;99.90;;;;;;4958193;28;20077;-70
2020/12/21 10:34:32;;;;;;;17.33;8.57;;;6.90;99.90;;;;;;4978023;28;20379;-69
2020/12/21 10:36:57;;;;;;;15.77;8.48;;;7.10;99.90;;;;;;4978109;28;20034;-69
2020/12/21 10:39:23;;;;;;;14.65;8.18;;;7.10;99.90;;;;;;4978732;28;20023;-69
2020/12/21 10:41:49;;;;;;;16.58;8.95;;;7.10;99.90;;;;;;4978062;28;20473;-69
2020/12/21 10:44:16;;;;;;;21.98;8.93;;;7.20;99.90;;;;;;4978475;28;20030;-69
2020/12/21 10:46:42;;;;;;;16.08;8.43;;;7.20;99.90;;;;;;4977821;28;20054;-69
2020/12/21 10:49:09;;;;;;;18.80;8.73;;;7.20;99.90;;;;;;4973580;28;20034;-72
2020/12/21 10:51:34;;;;;;;13.43;7.75;;;7.30;99.90;;;;;;4986819;28;20422;-70
2020/12/21 10:54:01;;;;;;;24.30;8.82;;;7.40;99.90;;;;;;4979027;28;20023;-70
2020/12/21 10:56:27;;;;;;;19.85;9.40;;;7.40;99.90;;;;;;4976489;28;20038;-70
2020/12/21 10:58:54;;;;;;;17.20;8.52;;;7.30;99.90;;;;;;4977263;28;20038;-70
2020/12/21 11:01:20;;;;;;;13.50;7.70;;;7.50;99.90;;;;;;4983609;28;20075;-70
2020/12/21 11:03:46;;;;;;;14.80;7.50;;;7.70;99.90;;;;;;4977817;28;20145;-70
2020/12/21 11:06:18;;;;;;;16.23;7.32;;;7.80;99.90;;;;;;4977499;28;20030;-70
2020/12/21 11:08:43;;;;;;;23.83;9.70;;;8.00;99.90;;;;;;4976363;28;20034;-70
2020/12/21 11:11:09;;;;;;;16.25;8.07;;;8.00;99.90;;;;;;4977056;28;20070;-70
2020/12/21 11:13:37;;;;;;;17.90;9.02;;;7.90;99.90;;;;;;4979618;28;20031;-70
2020/12/21 11:16:04;;;;;;;15.10;7.88;;;7.80;99.90;;;;;;4981183;28;20594;-71
2020/12/21 11:18:29;;;;;;;16.75;7.95;;;7.60;99.90;;;;;;4979612;28;20077;-70
2020/12/21 11:20:58;;;;;;;19.58;8.63;;;7.30;99.90;;;;;;4974568;28;20117;-70
2020/12/21 11:23:23;;;;;;;19.63;9.25;;;7.20;99.90;;;;;;4981298;28;20113;-68
2020/12/21 11:25:49;;;;;;;17.77;9.32;;;7.10;99.90;;;;;;4975750;28;20042;-70
2020/12/21 11:28:14;;;;;;;18.67;8.98;;;7.10;99.90;;;;;;4992193;28;20042;-71
2020/12/21 11:30:40;;;;;;;21.42;9.27;;;7.10;99.90;;;;;;4975091;28;20066;-71
2020/12/21 11:33:06;;;;;;;20.08;9.70;;;7.10;99.90;;;;;;4964915;28;20036;-71
2020/12/21 11:35:31;;;;;;;24.38;10.90;;;7.30;99.90;;;;;;4980192;28;20034;-70
2020/12/21 11:37:57;;;;;;;16.13;8.23;;;7.50;99.90;;;;;;4972771;28;20529;-69
2020/12/21 11:40:23;;;;;;;22.42;8.45;;;7.80;99.90;;;;;;4978655;28;20046;-70
2020/12/21 11:42:48;;;;;;;17.85;8.35;;;8.00;99.90;;;;;;4980131;28;20510;-70
2020/12/21 11:45:14;;;;;;;20.70;8.80;;;7.90;99.90;;;;;;4981433;28;20034;-69
2020/12/21 11:47:40;;;;;;;17.75;7.90;;;7.80;99.90;;;;;;4980969;28;20038;-69
2020/12/21 11:50:06;;;;;;;19.15;8.23;;;7.70;99.90;;;;;;4981458;28;20038;-70
2020/12/21 11:52:32;;;;;;;15.00;7.85;;;7.60;99.90;;;;;;4979638;28;20054;-70
2020/12/21 11:54:58;;;;;;;15.40;7.50;;;7.70;99.90;;;;;;4977358;28;20230;-70
2020/12/21 11:57:27;;;;;;;13.95;7.07;;;7.90;99.90;;;;;;4977514;28;20038;-70
2020/12/21 11:59:53;;;;;;;17.70;6.53;;;8.00;99.90;;;;;;4979296;28;20811;-70
2020/12/21 12:02:19;;;;;;;18.05;6.95;;;8.00;99.90;;;;;;4969117;28;20030;-70
2020/12/21 12:04:45;;;;;;;12.60;6.60;;;8.10;99.90;;;;;;4980947;28;20380;-71
2020/12/21 12:07:11;;;;;;;15.07;6.85;;;8.10;99.90;;;;;;4980988;28;20466;-71
2020/12/21 12:09:36;;;;;;;13.27;6.10;;;8.00;99.90;;;;;;4979718;28;20573;-70
2020/12/21 12:12:02;;;;;;;14.32;7.50;;;7.80;99.90;;;;;;4979513;28;20038;-68
2020/12/21 12:14:28;;;;;;;14.27;6.15;;;7.70;99.90;;;;;;4978681;28;20042;-67
2020/12/21 12:16:58;;;;;;;12.25;5.63;;;8.00;99.90;;;;;;4980824;28;20137;-67
2020/12/21 12:19:26;;;;;;;14.70;5.15;;;8.30;99.90;;;;;;4981392;28;20034;-67
2020/12/21 12:21:54;;;;;;;13.23;5.15;;;8.80;99.90;;;;;;4979658;28;20030;-68
2020/12/21 12:24:20;;;;;;;15.57;4.72;;;9.10;99.90;;;;;;4981304;28;20541;-68
2020/12/21 12:26:47;;;;;;;11.60;5.10;;;9.30;99.90;;;;;;4980486;28;20030;-68
2020/12/21 12:29:13;;;;;;;10.07;4.78;;;9.40;99.90;;;;;;4980472;28;20113;-68
2020/12/21 12:31:39;;;;;;;10.25;4.68;;;9.00;99.90;;;;;;4981292;28;20034;-68
2020/12/21 12:34:05;;;;;;;9.25;4.57;;;8.90;99.90;;;;;;4976142;28;20109;-68
2020/12/21 12:36:30;;;;;;;11.82;5.15;;;9.00;99.90;;;;;;4980293;28;20034;-68
2020/12/21 12:38:56;;;;;;;14.75;5.68;;;9.00;99.90;;;;;;4978853;28;20113;-68